Date,TemperatureHighF,TemperatureAvgF,TemperatureLowF,DewpointHighF,DewpointAvgF,DewpointLowF,HumidityHigh,HumidityAvg,HumidityLow,PressureMaxIn,PressureMinIn,WindSpeedMaxMPH,WindSpeedAvgMPH,GustSpeedMaxMPH,PrecipitationSumIn
2013-3-1,43,41,38,-100,-100,-100,0,0,100,0.00,40.00,0,-999,0,0.03
2013-3-2,44,36,27,-100,-100,-100,0,0,100,0.00,40.00,0,-999,0,0.02
2013-3-3,32,28,21,-100,-100,-100,0,0,100,0.00,40.00,0,-999,0,0.03
2013-3-4,33,25,20,-100,-100,-100,0,0,100,0.00,40.00,0,-999,0,0.01
2013-3-5,33,29,25,-100,-100,-100,0,0,100,0.00,40.00,0,-999,0,0.00
2013-3-6,37,33,31,-100,-100,-100,0,0,100,0.00,40.00,0,-999,0,0.01
2013-3-7,39,32,27,-100,-100,-100,0,0,100,0.00,40.00,0,-999,0,0.01
2013-3-8,41,31,25,-100,-100,-100,0,0,100,0.00,40.00,0,-999,0,0.00
2013-3-9,45,32,25,-100,-100,-100,0,0,100,0.00,40.00,0,-999,0,0.00
2013-3-10,36,32,28,-100,-100,-100,0,0,100,0.00,40.00,0,-999,0,0.00
2013-3-11,42,35,30,-100,-100,-100,0,0,100,0.00,40.00,0,-999,0,0.00
2013-3-12,40,38,33,-100,-100,-100,0,0,100,0.00,40.00,0,-999,0,0.04
2013-3-13,44,40,38,-100,-100,-100,0,0,100,0.00,40.00,0,-999,0,0.04
2013-3-14,45,41,36,-100,-100,-100,0,0,100,0.00,40.00,0,-999,0,0.01
2013-3-15,42,38,35,-100,-100,-100,0,0,100,0.00,40.00,0,-999,0,0.02
2013-3-16,38,33,28,-100,-100,-100,0,0,100,0.00,40.00,0,-999,0,0.06
2013-3-17,32,28,27,-100,-100,-100,0,0,100,0.00,40.00,0,-999,0,0.05
2013-3-18,32,28,23,-100,-100,-100,0,0,100,0.00,40.00,0,-999,0,0.03
2013-3-19,34,29,24,-100,-100,-100,0,0,100,0.00,40.00,0,-999,0,0.01
2013-3-20,36,32,27,-100,-100,-100,0,0,100,0.00,40.00,0,-999,0,0.05
2013-3-21,32,27,25,-100,-100,-100,0,0,100,0.00,40.00,0,-999,0,0.04
2013-3-22,31,27,19,-100,-100,-100,0,0,100,0.00,40.00,0,-999,0,0.02
2013-3-23,38,23,17,-100,-100,-100,0,0,100,0.00,40.00,0,-999,0,0.01
2013-3-24,37,26,21,-100,-100,-100,0,0,100,0.00,40.00,0,-999,0,0.00
2013-3-25,44,32,23,-100,-100,-100,0,0,100,0.00,40.00,0,-999,0,0.00
2013-3-26,45,35,27,-100,-100,-100,0,0,100,0.00,40.00,0,-999,0,0.00
2013-3-27,45,39,35,-100,-100,-100,0,0,100,0.00,40.00,0,-999,0,0.00
2013-3-28,49,39,34,-100,-100,-100,0,0,100,0.00,40.00,0,-999,0,0.00
2013-3-29,49,40,33,-100,-100,-100,0,0,100,0.00,40.00,0,-999,0,0.00
2013-3-30,56,43,34,-100,-100,-100,0,0,100,0.00,40.00,0,-999,0,0.00
2013-3-31,59,44,37,-100,-100,-100,0,0,100,0.00,40.00,0,-999,0,0.00